x

Sand Key, Fl (sanf1) Weather Station

6:50pm - Wed 22nd Oct 2014 All times are CDT. -4 hours from GMT.

  • Wind
    15mph, 17mph gusts
  • Air Temp 75°f
  • Sea Pressure 1013mb
  • Sand Key, Fl
  • Sand Key, Fl

More Historic Weather Station data

Upgrade to MSW Pro to gain access to the past 30 days of data for over 8000 Wavebouys and Weather Stations around the globe.

Join Pro

Comparision Forecast

View Surf forecast
   
Wed 10/22 6:50pm 15 17 mph 1013mb 75f
5:50pm 16 18 mph 1012.3mb 75f
4:50pm 16 17 mph 1011.9mb 74f
3:50pm 14 15 mph 1012.8mb 74f
2:50pm 5 7 mph 1013.6mb 74f
1:50pm 14 16 mph 1013.3mb 78f
12:50pm 13 15 mph 1013.7mb 79f
11:50am 11 14 mph 1014.5mb 80f
10:50am 17 21 mph 1014.3mb 79f
9:50am 14 15 mph 1014mb 80f
8:50am 11 14 mph 1013.9mb 81f
7:50am 9 11 mph 1013.5mb 81f
6:50am 9 11 mph 1012.9mb 81f
5:50am 10 13 mph 1012.5mb 80f
4:50am 11 14 mph 1012.5mb 80f
3:50am 8 10 mph 1012.3mb 80f
2:50am 10 13 mph 1012.7mb 79f
1:50am 7 9 mph 1012.8mb 80f
12:50am 7 8 mph 1013.2mb 79f
Tue 10/21 11:50pm 3 5 mph 1013.6mb 78f
10:50pm 20 22 mph 1014.9mb 77f
9:50pm 9 11 mph 1014.8mb 79f
8:50pm 6 7 mph 1014.5mb 79f
7:50pm 8 9 mph 1013.6mb 78f
6:50pm 6 8 mph 1012.5mb 78f
5:50pm 5 6 mph 1012.2mb 76f
4:50pm 3 5 mph 1012.7mb 76f
3:50pm 7 9 mph 1012.7mb 75f
2:50pm 9 11 mph 1013.5mb 74f
1:50pm 9 11 mph 1014.3mb 74f
12:50pm 8 14 mph 1015.6mb 74f
11:50am 16 24 mph 1015.8mb 72f
10:50am 15 18 mph 1015mb 76f
9:50am 15 25 mph 1014.3mb 80f
8:50am 8 10 mph 1014.1mb 81f
7:50am 10 11 mph 1013.2mb 80f
6:50am  -  mph 1012.4mb 80f
5:50am 15 49 mph 1012.7mb 80f
4:50am 11 14 mph 1012.8mb 80f
3:50am 6 11 mph 1012.6mb 80f
2:50am 26
mph
1012.9mb 80f
1:50am 7 8 mph 1013.4mb 80f
12:50am 13 29 mph 1013.7mb 80f
Mon 10/20 11:50pm 11 15 mph 1014.6mb 79f
10:50pm  -  mph 1014.7mb 78f
9:50pm 10 11 mph 1014.5mb 81f
8:50pm 14 17 mph 1013.7mb 81f
7:50pm 13 20 mph 1013.5mb 79f
6:50pm 15 18 mph 1013.2mb 79f
5:50pm 14 16 mph 1012.7mb 81f
4:50pm 10 13 mph 1012.8mb 81f
3:50pm 16 18 mph 1013.5mb 79f
2:50pm 20 28 mph 1013.6mb 81f
1:50pm 11 14 mph 1014.3mb 81f
12:50pm 13 14 mph 1014.8mb 81f
11:50am 14 16 mph 1015.8mb 81f
10:50am 14 16 mph 1015.9mb 81f
9:50am 14 15 mph 1015.8mb 81f
8:50am 15 18 mph 1015.2mb 81f
7:50am 14 16 mph 1014.9mb 80f
6:50am 15 17 mph 1014.3mb 79f
5:50am 18 21 mph 1014.2mb 79f
4:50am 15 17 mph 1014.4mb 81f
3:50am 14 16 mph 1014.4mb 81f
2:50am 14 15 mph 1014.5mb 81f
1:50am 14 16 mph 1015.1mb 81f
Sun 10/19 11:50pm 11 15 mph 1015.9mb 80f
10:50pm 10 13 mph 1016.2mb 79f
9:50pm 10 13 mph 1015.6mb 79f
8:50pm 9 14 mph 1015.4mb 79f
7:50pm 9 13 mph 1015.1mb 78f
6:50pm 8 11 mph 1014.7mb 79f
5:50pm 9 11 mph 1014.2mb 79f
4:50pm 11 14 mph 1014.1mb 79f
3:50pm 3 6 mph 1014.5mb 79f
2:50pm 1 2 mph 1014.7mb 79f
1:50pm 3 6 mph 1015.1mb 79f
12:50pm 5 7 mph 1015.5mb 79f
11:50am 6 9 mph 1015.8mb 79f
10:50am 9 14 mph 1015.9mb 78f
9:50am 8 10 mph 1015.9mb 78f
8:50am 9 11 mph 1015.6mb 77f
7:50am 8 11 mph 1015.4mb 77f
6:50am 7 10 mph 1015.1mb 77f
5:50am 5 7 mph 1014.6mb 77f
4:50am 2 6 mph 1014.4mb 77f
3:50am 3 6 mph 1014.4mb 77f
2:50am 6 7 mph 1014.8mb 77f
1:50am 5 6 mph 1015mb 77f
12:50am 2 5 mph 1015.1mb 77f